Station: Adelaide Airport

  Atmospheric Gas Attenuation - ITU Rec 676-11   --------------- db/100km ---------------
Date Time Temp RH % AH g/m3 Dew Point Wind Direction Speed kph Gust kph Barometer mB Rainfall Since 9am 24GHz 47GHz 76GHz 122GHz 134GHz 241GHz
16 18:40 19.2 57 9.4 10.5 1018.8 0 21.0 25.8 40.5 106.2 102.3 352.7
16 18:30 19.1 58 9.51 10.8 30 33 1018.8 0 21.3 26.0 40.9 107.5 103.8 358.0
16 18:20 19.2 57 9.4 10.5 32 35 1018.7 0 21.0 25.8 40.5 106.2 102.3 352.6
16 18:10 19.1 55 9.02 9.9 32 39 1018.8 0 20.2 25.2 39.1 102.5 97.6 336.3
16 18:00 19.1 54 8.85 9.6 33 44 1018.9 0 19.9 25.0 38.4 100.8 95.5 328.9
16 17:50 19 54 8.8 9.7 33 43 1018.9 0 19.8 24.9 38.3 100.4 95.0 327.2
16 17:40 19.5 51 8.56 9.2 35 41 1018.9 0 19.2 24.4 37.2 97.4 91.4 314.8
16 17:30 19.6 54 9.12 10.1 35 41 1018.9 0 20.4 25.3 39.2 102.9 98.2 338.6
16 17:20 19.8 51 8.71 9.4 33 37 1018.8 0 19.5 24.6 37.6 98.5 92.9 320.0
16 17:10 19.2 53 8.74 9.5 39 46 1018.8 0 19.6 24.8 38.0 99.5 94.0 323.7
16 17:00 19.5 52 8.73 9.5 37 43 1018.8 0 19.6 24.7 37.8 99.1 93.5 322.1
16 16:50 19.2 54 8.9 9.8 37 52 1018.9 0 20.0 25.0 38.6 101.2 96.0 330.7
16 16:40 19.4 53 8.84 9.6 39 44 1019.1 0 19.8 24.9 38.3 100.3 95.0 327.3
16 16:30 20.6 49 8.77 9.5 28 32 1019.3 0 19.6 24.5 37.4 98.2 92.8 319.5
16 16:20 20.6 45 8.05 8.5 33 35 1019.4 0 18.1 23.4 34.8 91.2 84.1 289.2
16 16:10 20.1 47 8.17 8.6 35 43 1019.4 0 18.4 23.7 35.5 92.9 86.1 296.1
16 16:00 19.5 50 8.39 8.8 41 46 1019.5 0 18.9 24.2 36.5 95.8 89.4 307.7
16 15:50 19.7 46 7.81 8 37 41 1019.7 0 17.6 23.3 34.3 89.9 82.2 282.5
16 15:40 20.2 47 8.22 8.7 32 39 1019.7 0 18.5 23.8 35.6 93.3 86.6 297.9
16 15:30 20.1 47 8.17 8.6 35 44 1019.8 0 18.4 23.7 35.5 92.9 86.1 296.2
16 15:20 19.8 47 8.03 8.2 37 43 1019.8 0 18.1 23.6 35.1 91.9 84.8 291.4
16 15:10 20.4 46 8.14 8.5 33 41 1020 0 18.3 23.6 35.3 92.3 85.4 293.9
16 15:00 19.6 47 7.93 8.2 39 46 1020.2 0 17.9 23.5 34.8 91.2 83.8 288.0
16 14:50 19.7 48 8.15 8.5 35 43 1020.3 0 18.4 23.8 35.6 93.2 86.3 296.9
16 14:40 19.5 46 7.72 7.8 33 37 1020.4 0 17.5 23.3 34.1 89.3 81.4 279.6
16 14:30 20.4 46 8.14 8.5 35 41 1020.4 0 18.3 23.6 35.3 92.4 85.5 294.0
16 14:20 19.5 43 7.22 6.7 33 41 1020.4 0 16.4 22.5 32.3 84.5 75.5 258.9
16 14:10 19.8 44 7.51 7.2 39 48 1020.3 0 17.0 22.9 33.3 87.0 78.6 269.9
16 14:00 19.9 43 7.39 7 43 48 1020.4 0 16.7 22.7 32.8 85.7 77.1 264.6
16 13:50 20.7 43 7.74 7.7 37 43 1020.3 0 17.4 23.0 33.7 88.2 80.4 276.3
16 13:40 20.3 42 7.39 7.1 33 37 1020.3 0 16.7 22.6 32.6 85.3 76.7 263.3
16 13:30 19.6 45 7.6 7.4 39 46 1020.3 0 17.2 23.0 33.7 88.0 79.9 274.2
16 13:20 19.8 44 7.51 7.4 32 43 1020.4 0 17.0 22.9 33.3 87.0 78.6 269.9
16 13:10 19.7 45 7.64 7.5 35 43 1020.5 0 17.3 23.1 33.8 88.3 80.3 275.6
16 13:00 19.7 43 7.3 7 37 44 1020.5 0 16.6 22.6 32.6 85.1 76.3 261.6
16 12:50 19.9 41 7.04 6.5 30 35 1020.6 0 16.0 22.2 31.6 82.4 73.1 250.4
16 12:40 19.4 42 7.01 6.3 33 35 1020.8 0 16.0 22.3 31.7 82.7 73.2 250.7
16 12:30 19.5 43 7.22 6.7 33 37 1020.9 0 16.4 22.5 32.4 84.6 75.5 259.0
16 12:20 20.4 41 7.25 6.7 33 35 1020.9 0 16.4 22.4 32.1 83.9 75.1 257.4
16 12:10 18.8 44 7.09 6.5 30 35 1020.9 0 16.2 22.5 32.2 84.1 74.7 255.9
16 12:00 19 43 7.01 6.3 33 37 1020.9 0 16.0 22.4 31.8 83.1 73.6 252.0
16 11:50 19.6 39 6.58 5.5 24 33 1021 0 15.1 21.6 30.1 78.5 68.1 232.8
16 11:40 18.4 43 6.76 5.7 28 33 1021 0 15.5 22.2 31.2 81.4 71.2 243.6
16 11:30 19.5 42 7.05 6.2 26 30 1021 0 16.1 22.3 31.8 83.0 73.6 252.1
16 11:20 18.6 42 6.68 5.7 22 32 1021 0 15.3 22.0 30.8 80.4 70.1 239.8
16 11:10 18.3 41 6.41 5 24 33 1021 0 14.8 21.7 30.0 78.2 67.2 229.7
16 11:00 18.4 40 6.29 4.5 26 32 1021.1 0 14.5 21.5 29.5 77.0 65.8 224.6
16 10:50 17.9 41 6.26 4.6 26 30 1021.1 0 14.5 21.6 29.6 77.2 65.8 224.8
16 10:40 17.7 42 6.34 4.9 26 30 1021.1 0 14.6 21.7 30.0 78.1 66.9 228.5
16 10:30 17.8 43 6.53 5.1 26 32 1021.1 0 15.0 22.0 30.6 79.8 69.0 236.0
16 10:20 18.1 41 6.33 4.9 28 30 1021.1 0 14.6 21.6 29.8 77.6 66.5 227.0
16 10:10 17.4 42 6.22 4.5 19 28 1021.1 0 14.4 21.6 29.6 77.3 65.8 224.5
16 10:00 17.2 43 6.3 4.7 19 22 1021.2 0 14.6 21.8 30.0 78.2 66.9 228.3
16 09:50 17.7 41 6.19 4.3 17 24 1021.3 0 14.3 21.5 29.4 76.7 65.2 222.5
16 09:40 17.3 41 6.04 4 26 28 1021.3 0 14.0 21.4 29.1 75.7 63.8 217.5
16 09:30 17.5 40 5.96 3.7 15 17 1021.3 0 13.8 21.2 28.7 74.8 62.7 213.8
16 09:20 17.4 39 5.78 3.3 19 26 1021.3 0 13.5 21.0 28.1 73.2 60.8 206.8
16 09:10 17.4 40 5.93 3.6 17 20 1021.3 0 13.8 21.2 28.6 74.6 62.5 212.8
16 09:00 16.7 42 5.97 3.7 15 19 1021.2 0 13.9 21.4 29.0 75.6 63.5 216.3
16 08:50 16.5 44 6.18 4.3 22 26 1021.1 0 14.3 21.8 29.8 77.7 66.1 225.4
16 08:40 16.3 44 6.1 4 19 20 1021.1 0 14.2 21.7 29.6 77.2 65.3 222.6
16 08:30 16.2 43 5.93 3.8 15 20 1021 0 13.8 21.5 29.1 75.7 63.4 215.9
16 08:20 16.2 45 6.21 4.4 15 19 1020.9 0 14.4 21.9 30.0 78.3 66.6 227.4
16 08:10 16 45 6.13 4.1 20 22 1020.8 0 14.3 21.8 29.8 77.7 65.9 224.6
16 08:00 15.9 44 5.96 3.7 15 17 1020.8 0 13.9 21.6 29.3 76.2 64.0 217.9
16 07:50 15.6 44 5.85 3.5 13 17 1020.7 0 13.7 21.5 29.0 75.4 62.9 214.2
16 07:40 15.6 43 5.72 3.2 17 19 1020.8 0 13.4 21.3 28.5 74.2 61.4 208.9
16 07:30 15.6 43 5.72 3.3 17 19 1020.7 0 13.4 21.3 28.5 74.2 61.4 208.9
16 07:20 15.4 44 5.78 3.3 20 22 1020.6 0 13.5 21.4 28.8 75.0 62.2 211.8
16 07:10 15.3 45 5.88 3.4 15 17 1020.5 0 13.7 21.6 29.2 76.0 63.5 216.2
16 07:00 15.2 45 5.84 3.3 20 22 1020.3 0 13.7 21.6 29.1 75.7 63.1 214.7
16 06:50 15.2 44 5.71 3 15 17 1020.2 0 13.4 21.4 28.6 74.4 61.6 209.4
16 06:40 15.2 46 5.97 3.6 17 19 1020.1 0 13.9 21.7 29.5 76.9 64.6 220.1
16 06:30 15.2 46 5.97 3.6 13 13 1020.1 0 13.9 21.7 29.5 76.9 64.6 220.1
16 06:20 15.1 44 5.68 3.1 15 17 1020 0 13.3 21.4 28.5 74.2 61.3 208.4
16 06:10 15.2 45 5.84 3.3 19 22 1020.1 0 13.7 21.6 29.1 75.7 63.1 214.7
16 06:00 15.2 44 5.71 3 17 19 1019.8 0 13.4 21.4 28.6 74.4 61.5 209.3
16 05:50 15.2 44 5.71 3 15 15 1019.7 0 13.4 21.4 28.6 74.4 61.5 209.3
16 05:40 15.3 45 5.88 3.4 19 24 1019.6 0 13.7 21.6 29.1 75.9 63.4 216.0
16 05:30 15.2 46 5.97 3.8 20 26 1019.5 0 13.9 21.7 29.5 76.8 64.6 220.0
16 05:20 15.2 45 5.84 3.3 13 15 1019.4 0 13.7 21.5 29.0 75.6 63.0 214.6
16 05:10 15.2 46 5.97 3.6 20 22 1019.4 0 13.9 21.7 29.5 76.8 64.6 219.9
16 04:50 15.2 46 5.97 3.6 17 19 1019.1 0 13.9 21.7 29.5 76.8 64.5 219.9
16 04:40 15.2 45 5.84 3.3 22 26 1019.1 0 13.7 21.5 29.0 75.6 63.0 214.5
16 04:30 15.2 46 5.97 3.6 17 19 1018.9 0 13.9 21.7 29.5 76.8 64.5 219.8
16 04:20 15.2 48 6.23 4.4 17 19 1018.9 0 14.5 22.1 30.4 79.3 67.6 230.6
16 04:10 15.2 48 6.23 4.4 17 19 1018.9 0 14.5 22.1 30.4 79.3 67.6 230.6
16 04:00 15.1 49 6.32 4.6 13 15 1018.9 0 14.7 22.2 30.8 80.3 68.8 234.7
16 03:50 15.2 48 6.23 4.4 22 26 1018.9 0 14.5 22.1 30.4 79.3 67.6 230.6
16 03:40 15.2 47 6.1 4.1 22 26 1018.9 0 14.2 21.9 29.9 78.0 66.1 225.2
16 03:30 15.2 47 6.1 3.9 17 22 1018.8 0 14.2 21.9 29.9 78.0 66.1 225.2
16 03:20 15.3 46 6.01 3.7 17 19 1018.8 0 14.0 21.7 29.6 77.1 64.9 221.2
16 03:10 15.3 45 5.88 3.4 17 19 1018.8 0 13.7 21.6 29.1 75.8 63.4 215.9
16 03:00 15.2 46 5.97 3.6 13 15 1019 0 13.9 21.7 29.5 76.8 64.5 219.9
16 02:50 15.3 46 6.01 3.7 22 26 1019.1 0 14.0 21.7 29.6 77.1 64.9 221.3
16 02:40 15.3 46 6.01 3.7 1019.2 0 14.0 21.8 29.6 77.1 64.9 221.3
16 02:30 15.3 45 5.88 3.4 15 17 1019.2 0 13.7 21.6 29.1 75.9 63.4 215.9
16 02:20 15.3 46 6.01 3.7 19 20 1019.3 0 14.0 21.8 29.6 77.1 64.9 221.3
16 02:10 15.3 45 5.88 3.4 24 28 1019.3 0 13.7 21.6 29.1 75.9 63.4 215.9
16 02:00 15.3 46 6.01 3.7 24 28 1019.3 0 14.0 21.8 29.6 77.1 64.9 221.3

Last Refresh: 16-Jan-2021 18:53:01

Most of the information presented on this site is sourced from the Bureau of Meteorology.  Copyright in all material sourced from the Bureau of Meteorology resides with the Commonwealth of Australia.